Time;durP1;ratioP1;P1;durP2;ratioP2;P2;SDS_P1;SDS_P2;PMS_P1;PMS_P2;Temp;Humidity;BMP_temperature;BMP_pressure;BME280_temperature;BME280_humidity;BME280_pressure;Samples;Min_cycle;Max_cycle;Signal;HPM_P1;HPM_P2
2021/11/23 00:00:32;;;;;;;12.23;4.72;;;;;;;1.84;67.10;99795.82;1613008;87;21080;-65
2021/11/23 00:03:01;;;;;;;8.40;4.12;;;;;;;1.89;67.03;99799.12;1615273;86;21055;-66
2021/11/23 00:05:29;;;;;;;8.23;3.52;;;;;;;1.90;66.80;99797.52;1613712;87;21869;-66
2021/11/23 00:07:56;;;;;;;10.48;3.87;;;;;;;1.90;66.79;99794.80;1616488;87;21091;-66
2021/11/23 00:10:23;;;;;;;11.45;4.80;;;;;;;1.91;66.75;99799.14;1627776;87;21088;-66
2021/11/23 00:12:50;;;;;;;8.83;4.22;;;;;;;1.91;66.63;99797.78;1621462;87;21020;-65
2021/11/23 00:15:17;;;;;;;13.55;4.70;;;;;;;1.89;66.46;99798.59;1616333;87;22257;-65
2021/11/23 00:17:45;;;;;;;8.83;3.80;;;;;;;1.89;66.51;99799.12;1625724;87;20992;-65
2021/11/23 00:20:12;;;;;;;8.08;4.00;;;;;;;1.88;66.56;99802.91;1617945;87;21579;-66
2021/11/23 00:22:38;;;;;;;6.30;3.80;;;;;;;1.88;66.59;99806.98;1609440;87;21089;-67
2021/11/23 00:25:07;;;;;;;7.85;3.45;;;;;;;1.88;66.51;99805.63;1628326;87;21032;-64
2021/11/23 00:27:34;;;;;;;6.78;3.52;;;;;;;1.87;66.61;99808.89;1627807;87;21563;-66
2021/11/23 00:30:02;;;;;;;8.00;3.47;;;;;;;1.84;66.32;99802.62;1609898;88;21261;-65
2021/11/23 00:32:29;;;;;;;12.63;4.17;;;;;;;1.76;66.39;99810.66;1615297;87;21518;-65
2021/11/23 00:34:56;;;;;;;9.93;3.77;;;;;;;1.70;66.26;99808.97;1627410;87;21067;-65
2021/11/23 00:37:25;;;;;;;11.80;4.45;;;;;;;1.58;66.35;99809.10;1621939;87;21008;-65
2021/11/23 00:39:51;;;;;;;6.90;3.47;;;;;;;1.44;66.52;99805.41;1622035;87;21142;-66
2021/11/23 00:42:18;;;;;;;11.05;4.28;;;;;;;1.37;66.61;99808.83;1623005;87;21236;-66
2021/11/23 00:44:45;;;;;;;10.00;4.03;;;;;;;1.26;66.77;99817.39;1612731;87;21525;-66
2021/11/23 00:47:11;;;;;;;5.40;3.12;;;;;;;1.15;66.94;99812.34;1626763;87;21060;-65
2021/11/23 00:49:39;;;;;;;7.12;3.80;;;;;;;1.04;67.12;99820.06;1624153;86;21147;-64
2021/11/23 00:52:06;;;;;;;5.85;3.50;;;;;;;0.90;67.37;99812.80;1568517;89;21041;-65
2021/11/23 00:54:33;;;;;;;9.28;3.85;;;;;;;0.83;67.67;99814.32;1570308;89;21529;-65
2021/11/23 00:57:00;;;;;;;6.72;3.92;;;;;;;0.84;68.03;99819.50;1584393;89;21151;-64
2021/11/23 00:59:27;;;;;;;10.93;4.10;;;;;;;0.83;68.07;99826.00;1574175;90;21352;-65
2021/11/23 01:01:53;;;;;;;8.25;3.62;;;;;;;0.81;68.09;99823.23;1571321;89;21124;-64
2021/11/23 01:04:20;;;;;;;8.28;3.83;;;;;;;0.78;68.33;99825.92;1575295;89;21283;-65
2021/11/23 01:06:49;;;;;;;6.95;4.25;;;;;;;0.81;68.39;99827.31;1627395;87;21880;-64
2021/11/23 01:09:16;;;;;;;11.80;4.67;;;;;;;0.80;68.42;99828.39;1574368;90;21057;-66
2021/11/23 01:11:43;;;;;;;10.38;5.10;;;;;;;0.73;68.29;99828.55;1580083;89;21047;-63
2021/11/23 01:14:09;;;;;;;11.10;5.15;;;;;;;0.71;68.55;99834.23;1582975;90;21004;-63
2021/11/23 01:16:37;;;;;;;12.80;5.55;;;;;;;0.68;68.35;99834.70;1583712;89;22090;-64
2021/11/23 01:19:03;;;;;;;12.03;6.05;;;;;;;0.59;68.53;99832.95;1583701;89;21181;-64
2021/11/23 01:21:29;;;;;;;14.53;6.30;;;;;;;0.60;68.78;99834.58;1615591;87;21591;-64
2021/11/23 01:23:56;;;;;;;15.50;6.00;;;;;;;0.64;68.90;99835.44;1621755;87;21053;-65
2021/11/23 01:26:23;;;;;;;11.45;6.03;;;;;;;0.66;68.83;99840.92;1623804;86;21096;-64
2021/11/23 01:28:49;;;;;;;13.68;6.58;;;;;;;0.68;68.78;99844.19;1628325;86;21017;-65
2021/11/23 01:31:16;;;;;;;18.95;5.75;;;;;;;0.69;68.61;99845.02;1621576;87;21177;-64
2021/11/23 01:33:42;;;;;;;13.08;5.72;;;;;;;0.67;68.33;99854.77;1612349;87;21108;-65
2021/11/23 01:36:09;;;;;;;11.38;5.08;;;;;;;0.55;68.32;99852.12;1632312;87;21080;-64
2021/11/23 01:38:37;;;;;;;12.45;6.08;;;;;;;0.51;68.59;99859.64;1626894;87;21057;-64
2021/11/23 01:41:04;;;;;;;13.15;5.50;;;;;;;0.54;68.57;99859.16;1604836;86;21061;-63
2021/11/23 01:43:31;;;;;;;11.68;5.50;;;;;;;0.53;68.47;99858.88;1593807;89;21143;-65
2021/11/23 01:45:57;;;;;;;11.38;5.00;;;;;;;0.52;68.47;99853.98;1605626;88;21569;-64
2021/11/23 01:48:25;;;;;;;13.28;5.17;;;;;;;0.52;68.41;99854.50;1606595;89;21104;-64
2021/11/23 01:50:52;;;;;;;9.83;5.08;;;;;;;0.45;68.29;99851.95;1584873;89;21045;-64
2021/11/23 01:53:18;;;;;;;17.00;4.87;;;;;;;0.38;68.53;99848.03;1582482;89;21025;-65
2021/11/23 01:55:45;;;;;;;10.35;4.75;;;;;;;0.40;68.68;99848.61;1601812;89;21592;-64
2021/11/23 01:58:13;;;;;;;10.10;4.70;;;;;;;0.40;68.66;99850.50;1603942;89;21096;-64
2021/11/23 02:00:41;;;;;;;10.65;4.85;;;;;;;0.36;68.65;99855.58;1600079;88;21133;-64
2021/11/23 02:03:09;;;;;;;11.75;4.62;;;;;;;0.36;68.75;99859.64;1606548;89;21091;-64
2021/11/23 02:05:35;;;;;;;9.60;4.28;;;;;;;0.35;68.72;99852.59;1596699;88;21083;-64
2021/11/23 02:08:02;;;;;;;19.70;6.55;;;;;;;0.38;68.66;99849.91;1607074;89;21620;-65
2021/11/23 02:10:28;;;;;;;7.45;3.92;;;;;;;0.41;68.61;99847.54;1603269;89;21053;-64
2021/11/23 02:12:55;;;;;;;12.23;4.53;;;;;;;0.44;68.47;99853.86;1603457;88;21562;-65
2021/11/23 02:15:21;;;;;;;10.82;4.92;;;;;;;0.44;68.45;99841.66;1607409;88;21122;-65
2021/11/23 02:17:48;;;;;;;6.62;3.52;;;;;;;0.45;68.38;99844.64;1617520;88;21118;-64
2021/11/23 02:20:17;;;;;;;7.30;4.03;;;;;;;0.47;68.34;99846.58;1608411;88;21988;-65
2021/11/23 02:22:45;;;;;;;11.70;4.90;;;;;;;0.46;68.29;99852.25;1583536;88;21120;-64
2021/11/23 02:25:12;;;;;;;9.73;4.30;;;;;;;0.38;68.04;99849.38;1614358;88;21089;-64
2021/11/23 02:27:39;;;;;;;12.37;5.78;;;;;;;0.25;68.14;99851.88;1611154;88;21013;-64
2021/11/23 02:30:08;;;;;;;9.05;4.92;;;;;;;0.18;68.25;99849.84;1595813;88;21814;-64
2021/11/23 02:32:45;;;;;;;14.18;5.90;;;;;;;0.15;68.43;99853.88;1593458;89;21903;-65
2021/11/23 02:35:12;;;;;;;11.57;5.58;;;;;;;0.09;68.49;99852.94;1641055;87;21060;-65
2021/11/23 02:37:47;;;;;;;11.22;5.78;;;;;;;-0.01;68.59;99857.64;1642529;86;21041;-65
2021/11/23 02:40:14;;;;;;;14.85;6.62;;;;;;;-0.09;68.85;99852.60;1631338;85;21101;-65
2021/11/23 02:42:43;;;;;;;12.58;5.47;;;;;;;-0.09;69.08;99851.25;1686321;84;21017;-65
2021/11/23 02:45:11;;;;;;;12.30;6.20;;;;;;;-0.06;69.09;99859.41;1688513;84;21225;-65
2021/11/23 02:47:38;;;;;;;11.97;5.37;;;;;;;-0.05;69.16;99843.47;1678338;84;21056;-66
2021/11/23 02:50:07;;;;;;;11.03;5.90;;;;;;;-0.04;69.26;99848.64;1686091;84;21599;-65
2021/11/23 02:52:33;;;;;;;12.18;6.40;;;;;;;-0.06;69.25;99855.34;1683246;84;21015;-65
2021/11/23 02:55:01;;;;;;;12.95;6.00;;;;;;;-0.10;69.41;99861.78;1688144;84;21034;-64
2021/11/23 02:57:30;;;;;;;12.28;5.70;;;;;;;-0.11;69.52;99861.50;1690258;84;21165;-65
2021/11/23 02:59:59;;;;;;;12.28;6.40;;;;;;;-0.21;69.53;99860.77;1683964;84;21073;-64
2021/11/23 03:02:26;;;;;;;14.13;6.33;;;;;;;-0.29;69.69;99861.94;1690883;84;20985;-64
2021/11/23 03:04:53;;;;;;;12.25;5.85;;;;;;;-0.35;69.81;99864.27;1628882;87;21031;-64
2021/11/23 03:07:20;;;;;;;15.70;7.30;;;;;;;-0.40;69.98;99869.57;1628270;86;21008;-65
2021/11/23 03:09:48;;;;;;;15.68;6.50;;;;;;;-0.46;70.19;99866.47;1628455;87;22148;-65
2021/11/23 03:12:17;;;;;;;13.75;7.40;;;;;;;-0.46;70.40;99866.47;1630198;87;21067;-65
2021/11/23 03:14:43;;;;;;;17.17;7.60;;;;;;;-0.46;70.42;99861.86;1627299;86;21546;-64
2021/11/23 03:17:13;;;;;;;12.63;6.97;;;;;;;-0.47;70.49;99856.68;1619439;86;21164;-65
2021/11/23 03:19:40;;;;;;;14.55;7.20;;;;;;;-0.46;70.49;99861.05;1625886;86;21588;-64
2021/11/23 03:22:10;;;;;;;20.92;8.50;;;;;;;-0.48;70.50;99865.88;1629475;87;21550;-65
2021/11/23 03:24:37;;;;;;;14.53;7.58;;;;;;;-0.53;70.67;99870.11;1647478;84;21529;-64
2021/11/23 03:27:05;;;;;;;18.10;8.20;;;;;;;-0.56;70.90;99876.00;1689918;84;21016;-65
2021/11/23 03:29:31;;;;;;;16.02;7.97;;;;;;;-0.60;71.09;99876.72;1682798;84;21158;-66
2021/11/23 03:31:58;;;;;;;13.75;7.22;;;;;;;-0.64;71.30;99880.42;1683817;84;21056;-66
2021/11/23 03:34:25;;;;;;;19.02;8.78;;;;;;;-0.66;71.42;99879.31;1630695;87;21075;-65
2021/11/23 03:36:53;;;;;;;19.87;8.78;;;;;;;-0.64;71.42;99878.55;1627286;87;21090;-64
2021/11/23 03:39:20;;;;;;;18.80;9.10;;;;;;;-0.62;71.34;99868.84;1626514;87;21074;-65
2021/11/23 03:41:46;;;;;;;14.90;7.22;;;;;;;-0.61;71.31;99873.18;1615175;87;21532;-65
2021/11/23 03:44:12;;;;;;;19.27;9.00;;;;;;;-0.59;71.27;99869.71;1615686;87;21220;-65
2021/11/23 03:46:39;;;;;;;13.85;8.25;;;;;;;-0.59;71.35;99871.06;1618163;87;21175;-65
2021/11/23 03:49:06;;;;;;;20.35;8.95;;;;;;;-0.58;71.30;99878.67;1614025;87;21029;-65
2021/11/23 03:51:33;;;;;;;16.00;9.23;;;;;;;-0.59;71.21;99877.84;1625015;87;21090;-65
2021/11/23 03:53:59;;;;;;;19.92;8.33;;;;;;;-0.59;71.22;99879.71;1618889;87;21556;-65
2021/11/23 03:56:26;;;;;;;15.85;8.28;;;;;;;-0.60;71.17;99875.37;1615981;87;21076;-64
2021/11/23 03:58:53;;;;;;;13.15;7.40;;;;;;;-0.59;71.22;99872.42;1611763;87;21713;-65
2021/11/23 04:01:20;;;;;;;20.62;8.45;;;;;;;-0.62;71.24;99875.09;1625178;86;21595;-65
2021/11/23 04:03:46;;;;;;;19.60;7.83;;;;;;;-0.64;71.33;99867.72;1612741;87;21548;-65
2021/11/23 04:06:14;;;;;;;22.27;8.08;;;;;;;-0.65;71.53;99867.41;1611297;87;21180;-65
2021/11/23 04:08:42;;;;;;;19.48;8.50;;;;;;;-0.63;71.58;99865.82;1615594;87;21047;-65
2021/11/23 04:11:09;;;;;;;16.62;7.55;;;;;;;-0.61;71.62;99866.41;1621308;87;21535;-65
2021/11/23 04:13:37;;;;;;;21.85;7.90;;;;;;;-0.58;71.66;99869.99;1623295;86;20997;-65
2021/11/23 04:16:05;;;;;;;20.75;8.35;;;;;;;-0.57;71.76;99860.83;1628117;86;21028;-65
2021/11/23 04:18:33;;;;;;;18.60;6.92;;;;;;;-0.54;71.81;99863.58;1636796;86;21048;-65
2021/11/23 04:21:02;;;;;;;16.52;8.13;;;;;;;-0.52;71.93;99864.17;1630326;86;21032;-65
2021/11/23 04:23:31;;;;;;;17.73;7.53;;;;;;;-0.51;71.87;99855.81;1614659;87;21156;-65
2021/11/23 04:25:57;;;;;;;18.23;9.65;;;;;;;-0.53;71.79;99848.45;1633072;87;21032;-65
2021/11/23 04:28:24;;;;;;;23.57;9.00;;;;;;;-0.57;71.93;99860.83;1631256;87;21061;-66
2021/11/23 04:30:50;;;;;;;20.80;9.25;;;;;;;-0.59;72.05;99858.88;1621950;86;21092;-65
2021/11/23 04:33:20;;;;;;;21.00;9.55;;;;;;;-0.56;72.26;99855.70;1631185;87;21048;-65
2021/11/23 04:35:47;;;;;;;19.55;9.15;;;;;;;-0.51;72.24;99853.63;1615860;87;21089;-65
2021/11/23 04:38:14;;;;;;;23.02;10.72;;;;;;;-0.45;72.15;99846.44;1632054;87;21065;-65
2021/11/23 04:40:40;;;;;;;20.70;9.38;;;;;;;-0.42;72.19;99852.73;1616181;87;21577;-65
2021/11/23 04:43:09;;;;;;;23.45;10.48;;;;;;;-0.40;72.19;99852.80;1625314;86;21058;-64
2021/11/23 04:45:37;;;;;;;17.67;10.18;;;;;;;-0.37;72.30;99848.78;1627921;87;21083;-66
2021/11/23 04:48:04;;;;;;;23.10;11.93;;;;;;;-0.33;72.42;99840.48;1558214;90;21382;-64
2021/11/23 04:50:33;;;;;;;25.40;12.70;;;;;;;-0.30;72.49;99841.34;1572662;90;21065;-64
2021/11/23 04:53:01;;;;;;;26.42;13.68;;;;;;;-0.27;72.40;99842.74;1563329;91;21064;-64
2021/11/23 04:55:27;;;;;;;32.65;13.78;;;;;;;-0.28;72.37;99829.75;1571058;90;21081;-64
2021/11/23 04:57:54;;;;;;;33.53;13.45;;;;;;;-0.29;72.30;99824.02;1619566;87;21077;-63
2021/11/23 05:00:21;;;;;;;39.53;15.53;;;;;;;-0.33;72.30;99824.23;1622315;86;21874;-64
2021/11/23 05:02:47;;;;;;;32.05;14.55;;;;;;;-0.33;72.40;99814.75;1624234;86;21034;-64
2021/11/23 05:05:14;;;;;;;40.50;15.45;;;;;;;-0.34;72.32;99809.02;1617476;87;21016;-65
2021/11/23 05:07:42;;;;;;;32.90;14.25;;;;;;;-0.36;72.29;99808.47;1623732;87;21695;-64
2021/11/23 05:10:10;;;;;;;32.78;14.63;;;;;;;-0.35;72.25;99803.84;1627267;87;21524;-64
2021/11/23 05:12:36;;;;;;;32.10;13.18;;;;;;;-0.40;72.19;99810.83;1625315;86;21557;-64
2021/11/23 05:15:06;;;;;;;36.20;13.60;;;;;;;-0.45;72.29;99801.77;1616296;86;21115;-64
2021/11/23 05:17:34;;;;;;;31.23;13.45;;;;;;;-0.46;72.35;99801.48;1622346;86;21556;-65
2021/11/23 05:20:06;;;;;;;41.65;13.32;;;;;;;-0.46;72.53;99804.99;1618927;87;21025;-65
2021/11/23 05:22:35;;;;;;;36.20;14.23;;;;;;;-0.46;72.65;99806.90;1625855;87;21565;-65
2021/11/23 05:25:06;;;;;;;34.50;15.18;;;;;;;-0.48;72.74;99813.08;1625778;86;21181;-65
2021/11/23 05:27:32;;;;;;;33.58;16.95;;;;;;;-0.49;72.81;99819.02;1623223;87;21233;-65
2021/11/23 05:30:00;;;;;;;35.38;14.50;;;;;;;-0.59;72.82;99830.45;1616226;86;21493;-66
2021/11/23 05:32:27;;;;;;;36.73;14.65;;;;;;;-0.75;73.02;99834.73;1574852;89;21073;-65
2021/11/23 05:34:54;;;;;;;33.92;14.10;;;;;;;-0.90;73.21;99836.53;1571101;89;21045;-65
2021/11/23 05:37:20;;;;;;;36.55;15.08;;;;;;;-0.96;73.41;99837.48;1553126;91;22279;-65
2021/11/23 05:39:47;;;;;;;25.12;12.68;;;;;;;-0.97;73.49;99841.27;1546175;90;21532;-66
2021/11/23 05:42:14;;;;;;;38.23;14.85;;;;;;;-0.97;73.55;99847.48;1590398;87;21160;-65
2021/11/23 05:44:41;;;;;;;31.73;12.63;;;;;;;-0.93;73.67;99847.84;1676633;84;21072;-65
2021/11/23 05:47:07;;;;;;;31.50;13.48;;;;;;;-0.89;73.59;99854.44;1671265;84;21574;-64
2021/11/23 05:49:36;;;;;;;24.52;11.90;;;;;;;-0.89;73.43;99852.53;1671197;84;21916;-64
2021/11/23 05:52:03;;;;;;;32.60;12.93;;;;;;;-0.89;73.44;99864.71;1672618;84;21545;-65
2021/11/23 05:54:33;;;;;;;33.58;14.05;;;;;;;-0.90;73.45;99869.84;1667842;84;21850;-64
2021/11/23 05:57:00;;;;;;;34.33;15.18;;;;;;;-0.94;73.26;99867.84;1677837;84;20989;-66
2021/11/23 05:59:27;;;;;;;45.40;19.02;;;;;;;-1.02;73.21;99877.95;1663215;84;21482;-64
2021/11/23 06:01:53;;;;;;;47.27;21.52;;;;;;;-1.04;73.32;99887.37;1672621;84;21528;-65
2021/11/23 06:04:21;;;;;;;59.27;23.87;;;;;;;-1.04;73.38;99901.70;1666639;84;21013;-65
2021/11/23 06:06:49;;;;;;;50.17;19.55;;;;;;;-1.12;73.29;99906.11;1641989;86;21160;-66
2021/11/23 06:09:17;;;;;;;54.67;20.82;;;;;;;-1.27;73.66;99912.79;1628444;86;21104;-66
2021/11/23 06:11:44;;;;;;;47.13;21.07;;;;;;;-1.30;74.05;99907.85;1616667;87;21079;-64
2021/11/23 06:14:11;;;;;;;48.25;21.12;;;;;;;-1.26;74.24;99910.89;1664124;84;22665;-65
2021/11/23 06:16:38;;;;;;;47.00;19.92;;;;;;;-1.23;74.37;99911.80;1664249;84;21020;-65
2021/11/23 06:19:05;;;;;;;52.53;21.25;;;;;;;-1.16;74.48;99906.29;1674479;84;21426;-65
2021/11/23 06:21:31;;;;;;;61.30;23.40;;;;;;;-1.17;74.41;99918.14;1675726;84;21217;-65
2021/11/23 06:23:59;;;;;;;50.40;20.70;;;;;;;-1.28;74.50;99920.59;1675857;84;20986;-65
2021/11/23 06:26:25;;;;;;;51.20;20.30;;;;;;;-1.35;74.81;99928.00;1642177;84;21231;-65
2021/11/23 06:28:53;;;;;;;46.63;22.40;;;;;;;-1.32;75.19;99926.17;1675968;84;21051;-65
2021/11/23 06:31:23;;;;;;;51.37;21.95;;;;;;;-1.23;75.24;99934.25;1679500;84;21025;-65
2021/11/23 06:33:54;;;;;;;55.05;21.80;;;;;;;-1.13;75.18;99931.52;1631787;86;21859;-64
2021/11/23 06:36:18;;;;;;;53.65;21.87;;;;;;;-1.01;75.31;99932.34;1655528;86;21029;-66
2021/11/23 06:38:50;;;;;;;51.90;21.82;;;;;;;-0.89;75.23;99928.86;1664689;84;21600;-64
2021/11/23 06:41:18;;;;;;;54.27;22.07;;;;;;;-0.76;75.12;99931.33;1666092;84;21029;-65
2021/11/23 06:43:45;;;;;;;49.70;21.35;;;;;;;-0.69;74.78;99932.58;1650925;84;21105;-65
2021/11/23 06:46:12;;;;;;;54.05;25.25;;;;;;;-0.63;74.95;99941.62;1671090;84;21053;-63
2021/11/23 06:48:38;;;;;;;56.60;23.62;;;;;;;-0.54;74.90;99930.75;1665715;84;21619;-64
2021/11/23 06:51:05;;;;;;;65.25;26.07;;;;;;;-0.49;74.88;99939.51;1663629;84;21789;-65
2021/11/23 06:53:32;;;;;;;56.02;22.35;;;;;;;-0.40;74.89;99938.63;1667435;84;21033;-63
2021/11/23 06:56:00;;;;;;;52.30;21.05;;;;;;;-0.32;74.73;99936.91;1666733;84;21108;-64
2021/11/23 06:58:28;;;;;;;53.75;21.23;;;;;;;-0.21;74.74;99937.97;1665839;84;21005;-64
2021/11/23 07:00:55;;;;;;;40.75;17.55;;;;;;;-0.08;74.72;99938.23;1671718;84;21016;-63
2021/11/23 07:03:22;;;;;;;54.88;23.87;;;;;;;0.05;74.59;99945.27;1651970;84;21085;-64
2021/11/23 07:05:49;;;;;;;61.37;24.15;;;;;;;0.18;74.23;99942.83;1649066;84;21096;-64
2021/11/23 07:08:17;;;;;;;76.92;28.62;;;;;;;0.32;73.99;99947.97;1652365;84;21104;-63
2021/11/23 07:10:45;;;;;;;57.50;26.23;;;;;;;0.43;73.42;99947.09;1665824;84;21001;-64
2021/11/23 07:13:12;;;;;;;95.80;28.55;;;;;;;0.52;72.99;99942.64;1668851;84;21577;-64
2021/11/23 07:15:40;;;;;;;49.98;22.30;;;;;;;0.59;72.67;99933.83;1651514;84;21368;-65
2021/11/23 07:18:08;;;;;;;48.87;20.40;;;;;;;0.65;72.22;99935.56;1651427;84;21080;-64
2021/11/23 07:20:35;;;;;;;61.05;20.45;;;;;;;0.70;71.92;99938.92;1647918;85;21086;-64
2021/11/23 07:23:02;;;;;;;34.60;16.97;;;;;;;0.75;71.66;99944.41;1673276;84;21032;-63
2021/11/23 07:25:29;;;;;;;38.92;16.87;;;;;;;0.80;71.16;99943.70;1646084;84;21040;-64
2021/11/23 07:27:58;;;;;;;36.28;18.02;;;;;;;0.82;70.72;99941.02;1672589;84;21101;-64
2021/11/23 07:30:26;;;;;;;35.83;16.87;;;;;;;0.84;70.14;99952.98;1672425;84;21020;-64
2021/11/23 07:32:54;;;;;;;37.40;17.30;;;;;;;0.75;70.08;99953.11;1663446;84;21032;-63
2021/11/23 07:35:20;;;;;;;39.38;18.27;;;;;;;0.71;69.90;99949.53;1665836;84;21486;-66
2021/11/23 07:37:48;;;;;;;41.20;18.35;;;;;;;0.64;69.81;99947.48;1606700;87;21062;-64
2021/11/23 07:40:16;;;;;;;39.70;19.12;;;;;;;0.61;69.89;99942.56;1615754;86;21761;-64
2021/11/23 07:42:44;;;;;;;46.85;22.22;;;;;;;0.65;70.20;99949.13;1635707;86;21063;-64
2021/11/23 07:45:11;;;;;;;30.80;16.67;;;;;;;0.75;69.94;99950.39;1611829;86;21488;-65
2021/11/23 07:47:39;;;;;;;33.48;15.90;;;;;;;0.78;69.62;99955.33;1639701;86;21091;-65
2021/11/23 07:50:07;;;;;;;32.88;15.38;;;;;;;0.82;69.21;99955.14;1657179;84;22069;-65
2021/11/23 07:52:34;;;;;;;28.85;13.38;;;;;;;0.87;69.24;99950.33;1628734;86;21097;-63
2021/11/23 07:55:03;;;;;;;26.40;12.68;;;;;;;0.98;69.04;99954.86;1637467;85;22487;-64
2021/11/23 07:57:32;;;;;;;29.48;14.30;;;;;;;1.08;68.90;99944.70;1637742;85;21517;-65
2021/11/23 08:00:00;;;;;;;30.12;13.95;;;;;;;1.19;68.81;99949.78;1668836;85;21060;-64
2021/11/23 08:02:26;;;;;;;35.15;16.45;;;;;;;1.30;68.34;99960.25;1648561;85;21024;-66
2021/11/23 08:04:52;;;;;;;31.48;14.95;;;;;;;1.35;68.44;99955.45;1672845;85;21156;-65
2021/11/23 08:07:24;;;;;;;35.00;14.45;;;;;;;1.49;68.24;99959.98;1670974;85;21076;-65
2021/11/23 08:09:51;;;;;;;25.55;13.75;;;;;;;1.57;67.79;99952.77;1669290;85;21068;-63
2021/11/23 08:12:18;;;;;;;22.75;11.00;;;;;;;1.63;67.83;99953.69;1649433;85;21001;-67
2021/11/23 08:14:45;;;;;;;30.70;11.48;;;;;;;1.69;67.54;99945.36;1671020;85;21047;-65
2021/11/23 08:17:11;;;;;;;23.05;12.33;;;;;;;1.75;67.06;99950.86;1649008;85;21805;-65
2021/11/23 08:19:37;;;;;;;26.48;12.18;;;;;;;1.77;66.64;99941.93;1650972;85;21036;-64
2021/11/23 08:22:04;;;;;;;22.20;10.45;;;;;;;1.81;66.79;99940.34;1670093;85;21067;-65
2021/11/23 08:24:31;;;;;;;24.00;11.50;;;;;;;1.95;66.73;99939.44;1668025;85;21012;-64
2021/11/23 08:26:59;;;;;;;22.15;10.23;;;;;;;2.11;66.56;99941.00;1669574;85;21023;-66
2021/11/23 08:29:26;;;;;;;17.32;9.00;;;;;;;2.17;65.99;99927.74;1649216;85;21560;-64
2021/11/23 08:31:55;;;;;;;20.32;8.55;;;;;;;2.14;65.53;99925.00;1663973;85;21136;-66
2021/11/23 08:34:22;;;;;;;20.62;10.40;;;;;;;2.09;65.60;99932.27;1670408;85;21295;-65
2021/11/23 08:36:49;;;;;;;21.17;7.67;;;;;;;2.03;65.39;99928.69;1626585;85;21061;-64
2021/11/23 08:39:16;;;;;;;21.77;8.70;;;;;;;1.95;65.42;99929.92;1673055;85;21021;-64
2021/11/23 08:41:43;;;;;;;17.12;9.00;;;;;;;1.88;65.55;99930.64;1629290;87;21979;-64
2021/11/23 08:44:09;;;;;;;19.75;9.40;;;;;;;1.81;65.41;99936.27;1633131;87;21579;-66
2021/11/23 08:46:36;;;;;;;20.00;8.53;;;;;;;1.70;65.73;99940.23;1629912;87;21039;-63
2021/11/23 08:49:05;;;;;;;26.75;10.35;;;;;;;1.65;66.04;99936.08;1614110;87;21082;-64
2021/11/23 08:51:35;;;;;;;19.42;9.38;;;;;;;1.61;66.09;99934.09;1660578;85;21097;-63
2021/11/23 08:54:00;;;;;;;18.02;8.25;;;;;;;1.52;66.26;99936.43;1681850;84;21084;-62
2021/11/23 08:56:33;;;;;;;20.00;8.15;;;;;;;1.46;66.48;99935.52;1686598;83;21087;-63
2021/11/23 08:58:57;;;;;;;13.58;6.55;;;;;;;1.42;66.64;99932.48;1686773;84;21391;-64
2021/11/23 09:01:26;;;;;;;13.48;6.58;;;;;;;1.39;66.81;99923.47;1673805;83;21532;-65
2021/11/23 09:03:55;;;;;;;18.82;8.15;;;;;;;1.34;66.89;99924.75;1688981;84;21532;-64
2021/11/23 09:06:27;;;;;;;15.58;7.30;;;;;;;1.32;67.04;99917.38;1633084;87;21188;-66
2021/11/23 09:08:57;;;;;;;16.90;7.22;;;;;;;1.33;67.01;99912.26;1626151;87;21051;-64
2021/11/23 09:11:25;;;;;;;15.40;5.50;;;;;;;1.35;67.24;99921.51;1631369;87;21059;-64
2021/11/23 09:13:55;;;;;;;17.35;7.90;;;;;;;1.40;67.43;99911.53;1626856;86;21031;-65
2021/11/23 09:16:23;;;;;;;18.40;7.58;;;;;;;1.45;67.22;99916.23;1687776;84;21072;-65
2021/11/23 09:18:50;;;;;;;29.20;9.03;;;;;;;1.46;67.15;99911.08;1630971;87;21235;-64
2021/11/23 09:21:19;;;;;;;23.10;6.90;;;;;;;1.49;67.34;99911.09;1625609;86;21512;-65
2021/11/23 09:23:45;;;;;;;24.00;8.45;;;;;;;1.51;67.27;99909.80;1628264;87;21079;-62
2021/11/23 09:26:12;;;;;;;16.42;6.80;;;;;;;1.54;67.23;99894.87;1629502;87;21583;-63
2021/11/23 09:28:39;;;;;;;14.63;6.75;;;;;;;1.58;67.27;99899.58;1658388;84;21019;-63
2021/11/23 09:31:06;;;;;;;19.60;7.42;;;;;;;1.64;67.28;99912.68;1688465;84;21174;-63
2021/11/23 09:33:33;;;;;;;12.03;6.35;;;;;;;1.63;66.88;99913.77;1687115;84;20997;-63
2021/11/23 09:36:01;;;;;;;14.60;6.05;;;;;;;1.59;66.99;99907.17;1631058;87;21036;-62
2021/11/23 09:38:27;;;;;;;21.12;6.70;;;;;;;1.55;66.77;99904.13;1627641;87;21558;-63
2021/11/23 09:40:54;;;;;;;14.53;5.42;;;;;;;1.51;66.79;99908.44;1626570;87;21051;-63
2021/11/23 09:43:20;;;;;;;9.60;4.90;;;;;;;1.44;67.18;99907.25;1640305;86;21124;-65
2021/11/23 09:45:47;;;;;;;12.40;5.33;;;;;;;1.48;67.37;99910.83;1616419;87;21297;-65
2021/11/23 09:48:13;;;;;;;11.60;5.70;;;;;;;1.51;67.47;99908.96;1621776;87;21024;-64
2021/11/23 09:50:42;;;;;;;15.00;5.00;;;;;;;1.54;67.43;99901.14;1616548;87;21097;-63
2021/11/23 09:53:10;;;;;;;10.15;5.53;;;;;;;1.53;67.46;99902.22;1619053;87;21028;-66
2021/11/23 09:55:38;;;;;;;11.55;5.85;;;;;;;1.52;67.30;99895.13;1616610;87;21867;-66
2021/11/23 09:58:04;;;;;;;16.07;5.72;;;;;;;1.56;67.62;99892.73;1616791;87;21518;-64
2021/11/23 10:00:35;;;;;;;9.60;5.45;;;;;;;1.63;67.84;99893.38;1626958;86;21091;-65
2021/11/23 10:03:09;;;;;;;15.45;5.58;;;;;;;1.72;67.68;99893.78;1617206;87;21055;-64
2021/11/23 10:05:38;;;;;;;20.00;6.17;;;;;;;1.80;67.61;99883.83;1639803;86;21079;-63
2021/11/23 10:08:16;;;;;;;15.95;6.60;;;;;;;1.92;67.41;99877.44;1602077;88;21087;-64
2021/11/23 10:10:52;;;;;;;17.20;6.28;;;;;;;2.02;67.10;99872.13;1625350;87;21582;-64
2021/11/23 10:13:21;;;;;;;13.68;6.53;;;;;;;2.12;66.68;99874.66;1620689;87;21028;-64
2021/11/23 10:15:49;;;;;;;15.63;5.95;;;;;;;2.18;66.47;99866.30;1621653;87;21031;-64
2021/11/23 10:18:20;;;;;;;13.48;5.90;;;;;;;2.23;66.35;99864.20;1648997;86;21000;-64
2021/11/23 10:20:50;;;;;;;18.37;8.20;;;;;;;2.37;66.18;99861.07;1618182;87;21157;-64
2021/11/23 10:23:29;;;;;;;11.48;5.97;;;;;;;2.50;66.28;99862.02;1617487;87;21047;-65
2021/11/23 10:26:16;;;;;;;10.60;5.97;;;;;;;2.72;66.18;99850.76;1613086;87;21089;-64
2021/11/23 10:28:57;;;;;;;10.68;4.95;;;;;;;2.96;65.36;99855.31;1620261;87;21579;-65
2021/11/23 10:31:35;;;;;;;12.50;5.22;;;;;;;3.09;64.32;99858.13;1615649;87;21120;-63
2021/11/23 10:34:09;;;;;;;12.45;5.37;;;;;;;2.87;63.35;99851.42;1621087;87;21618;-63
2021/11/23 10:36:39;;;;;;;11.68;6.05;;;;;;;2.70;63.92;99849.66;1616559;87;21064;-63
2021/11/23 10:39:14;;;;;;;13.53;6.33;;;;;;;2.71;64.18;99848.59;1638106;86;21016;-65
2021/11/23 10:41:43;;;;;;;9.63;4.85;;;;;;;2.60;63.88;99843.59;1605037;87;21080;-64
2021/11/23 10:44:27;;;;;;;10.00;4.37;;;;;;;2.42;64.19;99840.16;1627836;87;21535;-63
2021/11/23 10:47:03;;;;;;;11.68;4.95;;;;;;;2.34;64.32;99839.27;1634188;87;21172;-64
2021/11/23 10:49:43;;;;;;;12.00;4.55;;;;;;;2.32;64.37;99838.70;1625475;87;21131;-65
2021/11/23 10:52:08;;;;;;;12.13;4.72;;;;;;;2.31;64.31;99832.98;1641472;85;21540;-64
2021/11/23 10:54:35;;;;;;;11.40;4.00;;;;;;;2.35;64.39;99830.58;1635712;85;21146;-63
2021/11/23 10:57:08;;;;;;;9.73;4.20;;;;;;;2.38;64.46;99830.89;1625603;87;21042;-62
2021/11/23 10:59:36;;;;;;;;;;;;;;;2.39;64.40;99828.44;1682570;84;21149;-63
2021/11/23 11:02:03;;;;;;;12.45;4.12;;;;;;;2.38;64.61;99828.17;1667029;84;20165;-62
2021/11/23 11:04:36;;;;;;;6.62;3.70;;;;;;;2.38;64.93;99824.63;1689484;84;21036;-63
2021/11/23 11:07:03;;;;;;;7.70;3.50;;;;;;;2.38;64.77;99825.98;1683143;84;21068;-63
2021/11/23 11:09:32;;;;;;;7.08;4.30;;;;;;;2.36;64.77;99826.23;1679413;84;21048;-62
2021/11/23 11:12:00;;;;;;;12.43;3.95;;;;;;;2.33;64.84;99815.88;1680050;84;21118;-63
2021/11/23 11:14:28;;;;;;;9.85;5.20;;;;;;;2.34;64.86;99815.35;1689485;84;21527;-63
2021/11/23 11:16:56;;;;;;;8.98;4.12;;;;;;;2.32;64.88;99808.78;1654102;84;21071;-64
2021/11/23 11:19:23;;;;;;;7.37;3.87;;;;;;;2.27;64.89;99804.13;1683312;84;21017;-61
2021/11/23 11:21:55;;;;;;;6.22;3.77;;;;;;;2.23;65.25;99798.10;1653706;84;21530;-63
2021/11/23 11:24:43;;;;;;;10.53;5.50;;;;;;;2.24;65.27;99791.05;1638240;87;21149;-64
2021/11/23 11:27:38;;;;;;;13.60;5.37;;;;;;;2.16;65.23;99792.34;1613289;87;21015;-64
2021/11/23 11:30:34;;;;;;;8.83;4.40;;;;;;;2.11;65.65;99793.66;1637283;86;21067;-64
2021/11/23 11:33:12;;;;;;;12.35;6.03;;;;;;;2.13;65.79;99790.11;1669690;84;21059;-64